sensor_id;sensor_type;location;lat;lon;timestamp;pressure;altitude;pressure_sealevel;temperature;humidity
15880;BME280;61999;51.514;14.614;2023-02-13T00:01:18;102144.31;;;-0.91;83.86
15880;BME280;61999;51.514;14.614;2023-02-13T00:03:46;102146.91;;;-0.85;83.91
15880;BME280;61999;51.514;14.614;2023-02-13T00:06:14;102147.81;;;-0.70;84.99
15880;BME280;61999;51.514;14.614;2023-02-13T00:08:42;102145.25;;;-0.55;84.54
15880;BME280;61999;51.514;14.614;2023-02-13T00:11:11;102148.72;;;-0.19;82.59
15880;BME280;61999;51.514;14.614;2023-02-13T00:13:39;102145.28;;;-0.21;81.16
15880;BME280;61999;51.514;14.614;2023-02-13T00:16:08;102140.94;;;-0.16;81.48
15880;BME280;61999;51.514;14.614;2023-02-13T00:18:38;102138.31;;;-0.71;82.98
15880;BME280;61999;51.514;14.614;2023-02-13T00:21:09;102139.09;;;-1.09;85.43
15880;BME280;61999;51.514;14.614;2023-02-13T00:23:38;102139.19;;;-0.79;85.45
15880;BME280;61999;51.514;14.614;2023-02-13T00:26:10;102136.25;;;-1.63;88.15
15880;BME280;61999;51.514;14.614;2023-02-13T00:28:39;102139.69;;;-1.62;89.83
15880;BME280;61999;51.514;14.614;2023-02-13T00:31:09;102126.88;;;-1.50;90.21
15880;BME280;61999;51.514;14.614;2023-02-13T00:33:39;102127.81;;;-1.30;89.36
15880;BME280;61999;51.514;14.614;2023-02-13T00:36:11;102128.72;;;-1.15;88.56
15880;BME280;61999;51.514;14.614;2023-02-13T00:38:40;102126.88;;;-1.50;89.01
15880;BME280;61999;51.514;14.614;2023-02-13T00:41:09;102131.78;;;-1.93;90.34
15880;BME280;61999;51.514;14.614;2023-02-13T00:43:38;102128.22;;;-2.07;92.36
15880;BME280;61999;51.514;14.614;2023-02-13T00:46:06;102128.38;;;-1.83;93.17
15880;BME280;61999;51.514;14.614;2023-02-13T00:48:35;102127.66;;;-1.60;91.17
15880;BME280;61999;51.514;14.614;2023-02-13T00:51:05;102126.81;;;-1.53;90.33
15880;BME280;61999;51.514;14.614;2023-02-13T00:53:35;102129.41;;;-1.56;90.93
15880;BME280;61999;51.514;14.614;2023-02-13T00:56:05;102125.09;;;-1.54;91.38
15880;BME280;61999;51.514;14.614;2023-02-13T00:58:33;102130.28;;;-1.57;89.84
15880;BME280;61999;51.514;14.614;2023-02-13T01:01:01;102130.28;;;-1.51;90.99
15880;BME280;61999;51.514;14.614;2023-02-13T01:03:30;102123.50;;;-1.26;89.68
15880;BME280;61999;51.514;14.614;2023-02-13T01:05:58;102124.47;;;-0.90;87.52
15880;BME280;61999;51.514;14.614;2023-02-13T01:08:27;102116.50;;;-1.55;88.02
15880;BME280;61999;51.514;14.614;2023-02-13T01:10:55;102125.03;;;-1.63;89.22
15880;BME280;61999;51.514;14.614;2023-02-13T01:13:24;102118.19;;;-1.61;90.26
15880;BME280;61999;51.514;14.614;2023-02-13T01:15:52;102121.50;;;-1.78;90.58
15880;BME280;61999;51.514;14.614;2023-02-13T01:18:20;102118.22;;;-1.58;91.04
15880;BME280;61999;51.514;14.614;2023-02-13T01:20:57;102114.88;;;-1.27;90.30
15880;BME280;61999;51.514;14.614;2023-02-13T01:23:30;102113.25;;;-0.85;87.75
15880;BME280;61999;51.514;14.614;2023-02-13T01:25:59;102114.13;;;-0.83;87.02
15880;BME280;61999;51.514;14.614;2023-02-13T01:28:27;102108.91;;;-1.09;85.86
15880;BME280;61999;51.514;14.614;2023-02-13T01:30:57;102115.00;;;-0.90;85.82
15880;BME280;61999;51.514;14.614;2023-02-13T01:33:27;102103.75;;;-0.90;84.89
15880;BME280;61999;51.514;14.614;2023-02-13T01:35:55;102102.03;;;-0.91;85.13
15880;BME280;61999;51.514;14.614;2023-02-13T01:38:23;102097.63;;;-1.28;86.08
15880;BME280;61999;51.514;14.614;2023-02-13T01:40:53;102101.13;;;-1.10;86.49
15880;BME280;61999;51.514;14.614;2023-02-13T01:43:22;102097.56;;;-1.43;88.44
15880;BME280;61999;51.514;14.614;2023-02-13T01:45:55;102107.72;;;-1.74;89.03
15880;BME280;61999;51.514;14.614;2023-02-13T01:48:25;102100.97;;;-1.55;91.28
15880;BME280;61999;51.514;14.614;2023-02-13T01:51:00;102095.69;;;-1.72;91.15
15880;BME280;61999;51.514;14.614;2023-02-13T01:53:34;102102.72;;;-1.49;90.28
15880;BME280;61999;51.514;14.614;2023-02-13T01:56:11;102102.84;;;-1.22;89.87
15880;BME280;61999;51.514;14.614;2023-02-13T01:58:44;102097.66;;;-1.08;88.30
15880;BME280;61999;51.514;14.614;2023-02-13T02:01:14;102105.41;;;-1.23;86.91
15880;BME280;61999;51.514;14.614;2023-02-13T02:03:48;102105.31;;;-1.52;89.15
15880;BME280;61999;51.514;14.614;2023-02-13T02:06:31;102102.88;;;-1.00;88.38
15880;BME280;61999;51.514;14.614;2023-02-13T02:09:07;102094.28;;;-0.75;86.57
15880;BME280;61999;51.514;14.614;2023-02-13T02:11:47;102098.59;;;-0.95;85.73
15880;BME280;61999;51.514;14.614;2023-02-13T02:14:18;102100.31;;;-0.82;85.63
15880;BME280;61999;51.514;14.614;2023-02-13T02:16:46;102091.72;;;-0.55;83.80
15880;BME280;61999;51.514;14.614;2023-02-13T02:19:27;102092.56;;;-0.48;83.90
15880;BME280;61999;51.514;14.614;2023-02-13T02:23:00;102083.03;;;-0.09;83.06
15880;BME280;61999;51.514;14.614;2023-02-13T02:26:21;102076.88;;;0.26;80.95
15880;BME280;61999;51.514;14.614;2023-02-13T02:29:35;102087.38;;;-0.23;80.44
15880;BME280;61999;51.514;14.614;2023-02-13T02:32:42;102089.97;;;-0.17;82.35
15880;BME280;61999;51.514;14.614;2023-02-13T02:35:27;102083.94;;;-0.62;82.82
15880;BME280;61999;51.514;14.614;2023-02-13T02:38:16;102092.56;;;-0.33;83.95
15880;BME280;61999;51.514;14.614;2023-02-13T02:40:59;102096.03;;;-0.29;83.07
15880;BME280;61999;51.514;14.614;2023-02-13T02:43:47;102097.75;;;-0.45;82.72
15880;BME280;61999;51.514;14.614;2023-02-13T02:46:27;102081.31;;;-0.25;83.33
15880;BME280;61999;51.514;14.614;2023-02-13T02:49:05;102091.72;;;-0.35;84.36
15880;BME280;61999;51.514;14.614;2023-02-13T02:52:00;102087.41;;;-0.66;82.77
15880;BME280;61999;51.514;14.614;2023-02-13T02:54:37;102084.81;;;-0.79;86.41
15880;BME280;61999;51.514;14.614;2023-02-13T02:57:30;102090.81;;;-0.92;86.38
15880;BME280;61999;51.514;14.614;2023-02-13T03:00:13;102083.91;;;-0.22;84.16
15880;BME280;61999;51.514;14.614;2023-02-13T03:02:59;102078.63;;;0.27;81.04
15880;BME280;61999;51.514;14.614;2023-02-13T03:05:48;102085.66;;;-0.31;81.96
15880;BME280;61999;51.514;14.614;2023-02-13T03:08:36;102077.84;;;-0.24;82.27
15880;BME280;61999;51.514;14.614;2023-02-13T03:11:18;102078.69;;;0.05;80.85
15880;BME280;61999;51.514;14.614;2023-02-13T03:14:07;102079.53;;;0.09;79.85
15880;BME280;61999;51.514;14.614;2023-02-13T03:16:37;102077.03;;;-0.69;83.24
15880;BME280;61999;51.514;14.614;2023-02-13T03:19:37;102082.13;;;0.01;82.11
15880;BME280;61999;51.514;14.614;2023-02-13T03:22:41;102084.72;;;0.09;79.99
15880;BME280;61999;51.514;14.614;2023-02-13T03:25:21;102092.56;;;-0.23;80.02
15880;BME280;61999;51.514;14.614;2023-02-13T03:28:10;102093.41;;;-0.17;82.15
15880;BME280;61999;51.514;14.614;2023-02-13T03:31:06;102096.88;;;-0.62;82.96
15880;BME280;61999;51.514;14.614;2023-02-13T03:33:53;102092.56;;;-0.39;83.84
15880;BME280;61999;51.514;14.614;2023-02-13T03:36:33;102103.81;;;-0.41;82.07
15880;BME280;61999;51.514;14.614;2023-02-13T03:39:34;102094.28;;;-0.59;82.73
15880;BME280;61999;51.514;14.614;2023-02-13T03:42:14;102094.28;;;-0.04;82.49
15880;BME280;61999;51.514;14.614;2023-02-13T03:44:53;102091.59;;;0.31;79.89
15880;BME280;61999;51.514;14.614;2023-02-13T03:47:38;102095.16;;;-0.46;82.39
15880;BME280;61999;51.514;14.614;2023-02-13T03:50:10;102089.97;;;-0.72;83.21
15880;BME280;61999;51.514;14.614;2023-02-13T03:52:46;102083.94;;;-0.62;84.10
15880;BME280;61999;51.514;14.614;2023-02-13T03:55:21;102086.47;;;-0.13;81.35
15880;BME280;61999;51.514;14.614;2023-02-13T03:58:14;102079.59;;;-0.65;84.39
15880;BME280;61999;51.514;14.614;2023-02-13T04:01:04;102081.34;;;-0.35;84.57
15880;BME280;61999;51.514;14.614;2023-02-13T04:03:42;102083.84;;;0.14;81.68
15880;BME280;61999;51.514;14.614;2023-02-13T04:06:15;102092.53;;;0.07;81.72
15880;BME280;61999;51.514;14.614;2023-02-13T04:08:46;102089.00;;;0.30;80.89
15880;BME280;61999;51.514;14.614;2023-02-13T04:11:22;102089.97;;;-0.40;81.89
15880;BME280;61999;51.514;14.614;2023-02-13T04:13:56;102086.47;;;-0.96;84.94
15880;BME280;61999;51.514;14.614;2023-02-13T04:16:32;102089.03;;;0.04;82.57
15880;BME280;61999;51.514;14.614;2023-02-13T04:19:04;102083.81;;;0.21;80.55
15880;BME280;61999;51.514;14.614;2023-02-13T04:21:34;102078.44;;;0.73;79.01
15880;BME280;61999;51.514;14.614;2023-02-13T04:24:03;102087.22;;;0.50;79.24
15880;BME280;61999;51.514;14.614;2023-02-13T04:26:37;102082.88;;;0.52;78.83
15880;BME280;61999;51.514;14.614;2023-02-13T04:29:07;102082.94;;;0.35;79.03
15880;BME280;61999;51.514;14.614;2023-02-13T04:31:35;102087.25;;;0.40;79.06
15880;BME280;61999;51.514;14.614;2023-02-13T04:34:03;102092.44;;;0.24;80.08
15880;BME280;61999;51.514;14.614;2023-02-13T04:36:31;102089.09;;;-0.19;80.95
15880;BME280;61999;51.514;14.614;2023-02-13T04:38:59;102080.44;;;-0.12;81.91
15880;BME280;61999;51.514;14.614;2023-02-13T04:41:27;102075.19;;;0.25;81.89
15880;BME280;61999;51.514;14.614;2023-02-13T04:43:56;102080.19;;;0.71;79.57
15880;BME280;61999;51.514;14.614;2023-02-13T04:46:24;102085.44;;;0.65;78.22
15880;BME280;61999;51.514;14.614;2023-02-13T04:48:52;102086.53;;;-0.48;81.80
15880;BME280;61999;51.514;14.614;2023-02-13T04:51:20;102085.66;;;-0.34;82.97
15880;BME280;61999;51.514;14.614;2023-02-13T04:53:48;102080.34;;;0.19;83.12
15880;BME280;61999;51.514;14.614;2023-02-13T04:56:16;102087.34;;;0.07;81.63
15880;BME280;61999;51.514;14.614;2023-02-13T04:58:45;102085.59;;;0.03;82.15
15880;BME280;61999;51.514;14.614;2023-02-13T05:01:16;102089.88;;;0.36;82.05
15880;BME280;61999;51.514;14.614;2023-02-13T05:03:45;102081.31;;;-0.09;81.73
15880;BME280;61999;51.514;14.614;2023-02-13T05:06:13;102080.44;;;0.02;81.67
15880;BME280;61999;51.514;14.614;2023-02-13T05:08:41;102073.44;;;0.21;81.13
15880;BME280;61999;51.514;14.614;2023-02-13T05:11:09;102068.97;;;0.66;80.09
15880;BME280;61999;51.514;14.614;2023-02-13T05:13:37;102074.94;;;0.83;79.08
15880;BME280;61999;51.514;14.614;2023-02-13T05:16:05;102067.78;;;1.16;77.87
15880;BME280;61999;51.514;14.614;2023-02-13T05:18:34;102069.88;;;0.62;78.62
15880;BME280;61999;51.514;14.614;2023-02-13T05:21:03;102076.13;;;-0.22;81.60
15880;BME280;61999;51.514;14.614;2023-02-13T05:23:49;102084.78;;;-0.22;82.84
15880;BME280;61999;51.514;14.614;2023-02-13T05:26:17;102084.81;;;-0.46;81.76
15880;BME280;61999;51.514;14.614;2023-02-13T05:28:45;102090.69;;;0.43;81.09
15880;BME280;61999;51.514;14.614;2023-02-13T05:31:30;102092.34;;;0.63;78.43
15880;BME280;61999;51.514;14.614;2023-02-13T05:33:59;102096.75;;;0.41;79.26
15880;BME280;61999;51.514;14.614;2023-02-13T05:36:27;102099.19;;;0.79;77.61
15880;BME280;61999;51.514;14.614;2023-02-13T05:38:55;102102.53;;;0.99;76.78
15880;BME280;61999;51.514;14.614;2023-02-13T05:41:23;102094.63;;;1.19;75.54
15880;BME280;61999;51.514;14.614;2023-02-13T05:43:51;102099.88;;;1.04;74.41
15880;BME280;61999;51.514;14.614;2023-02-13T05:46:19;102100.03;;;0.78;74.88
15880;BME280;61999;51.514;14.614;2023-02-13T05:48:47;102105.44;;;0.36;75.54
15880;BME280;61999;51.514;14.614;2023-02-13T05:51:17;102102.06;;;-0.35;78.45
15880;BME280;61999;51.514;14.614;2023-02-13T05:53:45;102100.19;;;0.50;77.12
15880;BME280;61999;51.514;14.614;2023-02-13T05:56:13;102096.47;;;0.96;74.99
15880;BME280;61999;51.514;14.614;2023-02-13T05:58:41;102102.78;;;0.50;75.16
15880;BME280;61999;51.514;14.614;2023-02-13T06:01:11;102113.03;;;0.75;74.77
15880;BME280;61999;51.514;14.614;2023-02-13T06:03:39;102113.16;;;0.50;74.41
15880;BME280;61999;51.514;14.614;2023-02-13T06:06:07;102109.59;;;0.79;74.25
15880;BME280;61999;51.514;14.614;2023-02-13T06:08:37;102115.69;;;0.70;74.04
15880;BME280;61999;51.514;14.614;2023-02-13T06:11:05;102115.41;;;1.19;73.04
15880;BME280;61999;51.514;14.614;2023-02-13T06:13:33;102124.00;;;1.26;72.06
15880;BME280;61999;51.514;14.614;2023-02-13T06:16:01;102118.09;;;1.02;71.64
15880;BME280;61999;51.514;14.614;2023-02-13T06:18:29;102125.81;;;1.12;71.32
15880;BME280;61999;51.514;14.614;2023-02-13T06:20:57;102124.88;;;1.28;71.52
15880;BME280;61999;51.514;14.614;2023-02-13T06:23:26;102136.03;;;1.38;70.89
15880;BME280;61999;51.514;14.614;2023-02-13T06:26:01;102133.50;;;1.27;71.13
15880;BME280;61999;51.514;14.614;2023-02-13T06:28:29;102136.97;;;1.29;70.84
15880;BME280;61999;51.514;14.614;2023-02-13T06:30:57;102134.31;;;1.40;70.82
15880;BME280;61999;51.514;14.614;2023-02-13T06:33:26;102134.31;;;1.40;70.53
15880;BME280;61999;51.514;14.614;2023-02-13T06:35:54;102142.94;;;1.43;70.21
15880;BME280;61999;51.514;14.614;2023-02-13T06:38:22;102129.25;;;1.18;70.28
15880;BME280;61999;51.514;14.614;2023-02-13T06:40:50;102134.22;;;1.49;69.88
15880;BME280;61999;51.514;14.614;2023-02-13T06:43:19;102129.06;;;1.41;69.79
15880;BME280;61999;51.514;14.614;2023-02-13T06:45:47;102134.47;;;1.17;70.34
15880;BME280;61999;51.514;14.614;2023-02-13T06:48:17;102138.47;;;1.61;70.01
15880;BME280;61999;51.514;14.614;2023-02-13T06:50:45;102136.16;;;1.22;69.69
15880;BME280;61999;51.514;14.614;2023-02-13T06:53:13;102137.44;;;0.31;72.44
15880;BME280;61999;51.514;14.614;2023-02-13T06:55:41;102140.53;;;1.19;71.77
15880;BME280;61999;51.514;14.614;2023-02-13T06:58:09;102152.84;;;0.75;71.78
15880;BME280;61999;51.514;14.614;2023-02-13T07:00:38;102150.03;;;1.20;71.25
15880;BME280;61999;51.514;14.614;2023-02-13T07:03:06;102153.25;;;1.53;70.58
15880;BME280;61999;51.514;14.614;2023-02-13T07:05:38;102157.66;;;1.47;69.78
15880;BME280;61999;51.514;14.614;2023-02-13T07:08:07;102156.81;;;1.42;70.42
15880;BME280;61999;51.514;14.614;2023-02-13T07:10:36;102158.31;;;1.72;69.83
15880;BME280;61999;51.514;14.614;2023-02-13T07:13:05;102172.22;;;1.67;69.47
15880;BME280;61999;51.514;14.614;2023-02-13T07:15:34;102163.59;;;1.62;69.73
15880;BME280;61999;51.514;14.614;2023-02-13T07:18:04;102164.66;;;1.35;70.14
15880;BME280;61999;51.514;14.614;2023-02-13T07:20:33;102166.22;;;1.62;69.76
15880;BME280;61999;51.514;14.614;2023-02-13T07:23:04;102168.94;;;1.45;69.34
15880;BME280;61999;51.514;14.614;2023-02-13T07:25:32;102177.53;;;1.52;69.77
15880;BME280;61999;51.514;14.614;2023-02-13T07:28:02;102168.34;;;0.92;71.03
15880;BME280;61999;51.514;14.614;2023-02-13T07:30:31;102168.09;;;1.38;70.79
15880;BME280;61999;51.514;14.614;2023-02-13T07:33:00;102177.78;;;1.13;70.78
15880;BME280;61999;51.514;14.614;2023-02-13T07:35:30;102166.38;;;1.37;70.79
15880;BME280;61999;51.514;14.614;2023-02-13T07:37:59;102171.84;;;0.85;71.95
15880;BME280;61999;51.514;14.614;2023-02-13T07:40:27;102179.66;;;0.80;72.89
15880;BME280;61999;51.514;14.614;2023-02-13T07:42:55;102165.66;;;1.09;72.11
15880;BME280;61999;51.514;14.614;2023-02-13T07:45:26;102176.28;;;0.55;73.63
15880;BME280;61999;51.514;14.614;2023-02-13T07:47:54;102176.97;;;1.00;73.09
15880;BME280;61999;51.514;14.614;2023-02-13T07:50:23;102171.91;;;0.76;72.17
15880;BME280;61999;51.514;14.614;2023-02-13T07:52:56;102178.88;;;0.62;73.76
15880;BME280;61999;51.514;14.614;2023-02-13T07:55:25;102172.56;;;1.10;72.64
15880;BME280;61999;51.514;14.614;2023-02-13T07:57:54;102175.31;;;0.81;72.85
15880;BME280;61999;51.514;14.614;2023-02-13T08:00:22;102178.59;;;1.20;72.46
15880;BME280;61999;51.514;14.614;2023-02-13T08:02:50;102171.53;;;1.43;71.38
15880;BME280;61999;51.514;14.614;2023-02-13T08:05:18;102186.25;;;1.47;70.62
15880;BME280;61999;51.514;14.614;2023-02-13T08:07:46;102183.59;;;1.54;70.21
15880;BME280;61999;51.514;14.614;2023-02-13T08:10:16;102181.13;;;1.32;69.98
15880;BME280;61999;51.514;14.614;2023-02-13T08:13:01;102189.59;;;1.62;69.78
15880;BME280;61999;51.514;14.614;2023-02-13T08:15:30;102197.41;;;1.62;69.49
15880;BME280;61999;51.514;14.614;2023-02-13T08:17:58;102185.41;;;1.42;69.37
15880;BME280;61999;51.514;14.614;2023-02-13T08:20:26;102192.44;;;1.25;69.44
15880;BME280;61999;51.514;14.614;2023-02-13T08:23:01;102199.25;;;1.41;69.40
15880;BME280;61999;51.514;14.614;2023-02-13T08:25:31;102190.56;;;1.48;68.69
15880;BME280;61999;51.514;14.614;2023-02-13T08:28:00;102190.50;;;1.55;68.48
15880;BME280;61999;51.514;14.614;2023-02-13T08:30:28;102197.56;;;1.37;68.80
15880;BME280;61999;51.514;14.614;2023-02-13T08:32:56;102195.72;;;1.52;68.49
15880;BME280;61999;51.514;14.614;2023-02-13T08:35:24;102190.59;;;1.42;69.04
15880;BME280;61999;51.514;14.614;2023-02-13T08:37:55;102197.41;;;1.56;69.08
15880;BME280;61999;51.514;14.614;2023-02-13T08:40:23;102197.38;;;1.65;68.93
15880;BME280;61999;51.514;14.614;2023-02-13T08:42:59;102192.59;;;0.87;71.06
15880;BME280;61999;51.514;14.614;2023-02-13T08:45:28;102194.16;;;1.21;70.30
15880;BME280;61999;51.514;14.614;2023-02-13T08:47:57;102197.59;;;1.31;69.06
15880;BME280;61999;51.514;14.614;2023-02-13T08:50:27;102207.25;;;1.08;69.32
15880;BME280;61999;51.514;14.614;2023-02-13T08:52:55;102204.31;;;1.63;69.11
15880;BME280;61999;51.514;14.614;2023-02-13T08:55:25;102205.28;;;1.48;67.70
15880;BME280;61999;51.514;14.614;2023-02-13T08:57:55;102205.50;;;1.11;68.54
15880;BME280;61999;51.514;14.614;2023-02-13T09:00:25;102208.84;;;1.36;68.90
15880;BME280;61999;51.514;14.614;2023-02-13T09:02:53;102213.19;;;1.30;69.13
15880;BME280;61999;51.514;14.614;2023-02-13T09:05:21;102199.13;;;1.63;68.31
15880;BME280;61999;51.514;14.614;2023-02-13T09:07:50;102203.03;;;0.82;68.97
15880;BME280;61999;51.514;14.614;2023-02-13T09:10:18;102209.69;;;1.32;68.93
15880;BME280;61999;51.514;14.614;2023-02-13T09:12:51;102204.19;;;1.78;67.44
15880;BME280;61999;51.514;14.614;2023-02-13T09:15:20;102207.75;;;1.66;67.28
15880;BME280;61999;51.514;14.614;2023-02-13T09:17:49;102205.34;;;1.42;65.83
15880;BME280;61999;51.514;14.614;2023-02-13T09:20:18;102211.53;;;1.15;67.23
15880;BME280;61999;51.514;14.614;2023-02-13T09:22:46;102214.25;;;0.81;68.76
15880;BME280;61999;51.514;14.614;2023-02-13T09:25:14;102208.03;;;1.25;67.89
15880;BME280;61999;51.514;14.614;2023-02-13T09:27:42;102212.03;;;1.75;66.97
15880;BME280;61999;51.514;14.614;2023-02-13T09:30:11;102209.03;;;0.87;67.73
15880;BME280;61999;51.514;14.614;2023-02-13T09:32:45;102203.84;;;0.87;70.11
15880;BME280;61999;51.514;14.614;2023-02-13T09:35:13;102208.34;;;-0.04;71.41
15880;BME280;61999;51.514;14.614;2023-02-13T09:37:41;102203.13;;;-0.38;74.15
15880;BME280;61999;51.514;14.614;2023-02-13T09:40:24;102207.47;;;-0.11;74.19
15880;BME280;61999;51.514;14.614;2023-02-13T09:43:04;102208.09;;;1.07;71.93
15880;BME280;61999;51.514;14.614;2023-02-13T09:45:34;102216.69;;;1.25;70.15
15880;BME280;61999;51.514;14.614;2023-02-13T09:48:05;102215.81;;;1.23;68.78
15880;BME280;61999;51.514;14.614;2023-02-13T09:50:35;102213.28;;;1.07;70.58
15880;BME280;61999;51.514;14.614;2023-02-13T09:53:05;102219.50;;;0.66;71.83
15880;BME280;61999;51.514;14.614;2023-02-13T09:55:42;102225.38;;;1.17;70.61
15880;BME280;61999;51.514;14.614;2023-02-13T09:58:23;102225.41;;;1.14;69.41
15880;BME280;61999;51.514;14.614;2023-02-13T10:00:56;102216.66;;;1.27;70.13
15880;BME280;61999;51.514;14.614;2023-02-13T10:03:32;102214.56;;;1.81;68.64
15880;BME280;61999;51.514;14.614;2023-02-13T10:06:11;102220.47;;;2.06;67.55
15880;BME280;61999;51.514;14.614;2023-02-13T10:09:03;102213.56;;;2.04;67.40
15880;BME280;61999;51.514;14.614;2023-02-13T10:12:18;102219.63;;;2.04;66.89
15880;BME280;61999;51.514;14.614;2023-02-13T10:15:05;102215.16;;;2.18;66.27
15880;BME280;61999;51.514;14.614;2023-02-13T10:17:43;102213.00;;;1.62;67.10
15880;BME280;61999;51.514;14.614;2023-02-13T10:20:27;102213.75;;;1.73;69.34
15880;BME280;61999;51.514;14.614;2023-02-13T10:23:05;102215.06;;;0.95;70.07
15880;BME280;61999;51.514;14.614;2023-02-13T10:25:46;102216.41;;;1.67;69.57
15880;BME280;61999;51.514;14.614;2023-02-13T10:28:29;102213.28;;;1.10;69.87
15880;BME280;61999;51.514;14.614;2023-02-13T10:31:04;102216.13;;;0.13;73.08
15880;BME280;61999;51.514;14.614;2023-02-13T10:33:42;102215.78;;;1.26;71.87
15880;BME280;61999;51.514;14.614;2023-02-13T10:36:20;102199.13;;;1.63;69.57
15880;BME280;61999;51.514;14.614;2023-02-13T10:39:00;102198.66;;;0.87;71.19
15880;BME280;61999;51.514;14.614;2023-02-13T10:41:41;102200.19;;;1.26;71.06
15880;BME280;61999;51.514;14.614;2023-02-13T10:44:34;102195.06;;;1.19;70.90
15880;BME280;61999;51.514;14.614;2023-02-13T10:47:21;102188.06;;;1.32;69.95
15880;BME280;61999;51.514;14.614;2023-02-13T10:50:05;102180.19;;;1.42;70.90
15880;BME280;61999;51.514;14.614;2023-02-13T10:52:50;102181.16;;;1.24;70.49
15880;BME280;61999;51.514;14.614;2023-02-13T10:55:58;102180.66;;;0.01;74.37
15880;BME280;61999;51.514;14.614;2023-02-13T10:58:43;102184.13;;;0.09;75.59
15880;BME280;61999;51.514;14.614;2023-02-13T11:01:21;102185.75;;;0.69;75.99
15880;BME280;61999;51.514;14.614;2023-02-13T11:04:05;102173.59;;;0.80;74.05
15880;BME280;61999;51.514;14.614;2023-02-13T11:06:37;102166.38;;;1.37;71.65
15880;BME280;61999;51.514;14.614;2023-02-13T11:09:09;102163.75;;;1.39;71.93
15880;BME280;61999;51.514;14.614;2023-02-13T11:11:41;102159.25;;;1.65;70.07
15880;BME280;61999;51.514;14.614;2023-02-13T11:14:14;102161.81;;;1.67;70.14
15880;BME280;61999;51.514;14.614;2023-02-13T11:16:53;102158.31;;;1.71;70.36
15880;BME280;61999;51.514;14.614;2023-02-13T11:19:29;102153.91;;;1.85;70.22
15880;BME280;61999;51.514;14.614;2023-02-13T11:22:03;102153.97;;;1.70;68.82
15880;BME280;61999;51.514;14.614;2023-02-13T11:24:34;102149.31;;;0.96;70.86
15880;BME280;61999;51.514;14.614;2023-02-13T11:27:06;102163.31;;;0.49;75.27
15880;BME280;61999;51.514;14.614;2023-02-13T11:29:53;102155.59;;;0.31;75.25
15880;BME280;61999;51.514;14.614;2023-02-13T11:32:25;102152.00;;;0.69;73.78
15880;BME280;61999;51.514;14.614;2023-02-13T11:34:53;102146.94;;;0.17;76.37
15880;BME280;61999;51.514;14.614;2023-02-13T11:37:26;102148.66;;;0.42;75.99
15880;BME280;61999;51.514;14.614;2023-02-13T11:39:58;102156.97;;;1.16;75.47
15880;BME280;61999;51.514;14.614;2023-02-13T11:42:31;102146.88;;;0.59;75.77
15880;BME280;61999;51.514;14.614;2023-02-13T11:45:04;102150.25;;;0.74;74.67
15880;BME280;61999;51.514;14.614;2023-02-13T11:47:40;102152.91;;;0.55;76.48
15880;BME280;61999;51.514;14.614;2023-02-13T11:50:26;102151.25;;;0.24;76.59
15880;BME280;61999;51.514;14.614;2023-02-13T11:52:58;102138.97;;;0.81;76.52
15880;BME280;61999;51.514;14.614;2023-02-13T11:55:33;102136.25;;;1.05;74.48
15880;BME280;61999;51.514;14.614;2023-02-13T11:58:22;102145.94;;;0.79;74.43
15880;BME280;61999;51.514;14.614;2023-02-13T12:01:09;102141.63;;;0.70;75.41
15880;BME280;61999;51.514;14.614;2023-02-13T12:03:40;102145.84;;;0.91;74.78
15880;BME280;61999;51.514;14.614;2023-02-13T12:06:14;102146.97;;;-0.00;77.02
15880;BME280;61999;51.514;14.614;2023-02-13T12:08:47;102151.09;;;0.82;75.26
15880;BME280;61999;51.514;14.614;2023-02-13T12:11:29;102144.78;;;1.27;75.18
15880;BME280;61999;51.514;14.614;2023-02-13T12:14:01;102146.22;;;1.68;70.45
15880;BME280;61999;51.514;14.614;2023-02-13T12:16:35;102139.59;;;2.29;68.56
15880;BME280;61999;51.514;14.614;2023-02-13T12:19:11;102122.91;;;1.55;67.64
15880;BME280;61999;51.514;14.614;2023-02-13T12:21:59;102121.91;;;1.74;67.44
15880;BME280;61999;51.514;14.614;2023-02-13T12:25:03;102120.66;;;1.09;68.78
15880;BME280;61999;51.514;14.614;2023-02-13T12:27:48;102120.28;;;1.58;67.80
15880;BME280;61999;51.514;14.614;2023-02-13T12:30:45;102120.72;;;2.09;67.03
15880;BME280;61999;51.514;14.614;2023-02-13T12:33:38;102110.59;;;1.78;65.77
15880;BME280;61999;51.514;14.614;2023-02-13T12:36:18;102121.75;;;0.63;69.96
15880;BME280;61999;51.514;14.614;2023-02-13T12:39:08;102125.88;;;1.04;69.48
15880;BME280;61999;51.514;14.614;2023-02-13T12:41:55;102122.91;;;1.58;69.16
15880;BME280;61999;51.514;14.614;2023-02-13T12:44:57;102118.88;;;1.15;69.10
15880;BME280;61999;51.514;14.614;2023-02-13T12:47:36;102122.19;;;1.37;68.53
15880;BME280;61999;51.514;14.614;2023-02-13T12:50:46;102106.75;;;1.16;68.29
15880;BME280;61999;51.514;14.614;2023-02-13T12:53:47;102106.25;;;0.46;70.95
15880;BME280;61999;51.514;14.614;2023-02-13T12:56:35;102107.13;;;0.48;71.37
15880;BME280;61999;51.514;14.614;2023-02-13T12:59:15;102105.97;;;1.01;70.05
15880;BME280;61999;51.514;14.614;2023-02-13T13:02:18;102102.22;;;1.45;68.26
15880;BME280;61999;51.514;14.614;2023-02-13T13:05:07;102105.47;;;1.69;67.49
15880;BME280;61999;51.514;14.614;2023-02-13T13:07:59;102112.06;;;0.96;69.55
15880;BME280;61999;51.514;14.614;2023-02-13T13:10:48;102106.97;;;0.80;70.18
15880;BME280;61999;51.514;14.614;2023-02-13T13:13:34;102111.22;;;0.94;68.53
15880;BME280;61999;51.514;14.614;2023-02-13T13:16:13;102106.72;;;1.22;70.26
15880;BME280;61999;51.514;14.614;2023-02-13T13:19:01;102115.19;;;1.48;67.50
15880;BME280;61999;51.514;14.614;2023-02-13T13:21:41;102114.00;;;0.62;71.12
15880;BME280;61999;51.514;14.614;2023-02-13T13:24:26;102118.25;;;0.72;69.43
15880;BME280;61999;51.514;14.614;2023-02-13T13:26:58;102120.13;;;0.31;71.05
15880;BME280;61999;51.514;14.614;2023-02-13T13:29:38;102105.91;;;1.14;68.96